sensor_id;sensor_type;location;lat;lon;timestamp;P1;durP1;ratioP1;P2;durP2;ratioP2
55170;SDS011;41060;47.510;8.680;2023-04-08T00:00:37;2.65;;;1.00;;
55170;SDS011;41060;47.510;8.680;2023-04-08T00:03:04;0.93;;;0.85;;
55170;SDS011;41060;47.510;8.680;2023-04-08T00:05:30;1.85;;;1.10;;
55170;SDS011;41060;47.510;8.680;2023-04-08T00:07:57;1.73;;;1.10;;
55170;SDS011;41060;47.510;8.680;2023-04-08T00:10:24;4.47;;;1.42;;
55170;SDS011;41060;47.510;8.680;2023-04-08T00:12:52;1.70;;;1.15;;
55170;SDS011;41060;47.510;8.680;2023-04-08T00:15:20;1.80;;;1.25;;
55170;SDS011;41060;47.510;8.680;2023-04-08T00:17:46;1.77;;;1.15;;
55170;SDS011;41060;47.510;8.680;2023-04-08T00:20:13;1.52;;;1.10;;
55170;SDS011;41060;47.510;8.680;2023-04-08T00:22:40;2.20;;;1.40;;
55170;SDS011;41060;47.510;8.680;2023-04-08T00:25:07;1.95;;;1.75;;
55170;SDS011;41060;47.510;8.680;2023-04-08T00:27:40;2.03;;;1.40;;
55170;SDS011;41060;47.510;8.680;2023-04-08T00:30:08;1.92;;;1.27;;
55170;SDS011;41060;47.510;8.680;2023-04-08T00:32:35;2.30;;;0.90;;
55170;SDS011;41060;47.510;8.680;2023-04-08T00:35:03;1.77;;;1.20;;
55170;SDS011;41060;47.510;8.680;2023-04-08T00:37:29;3.03;;;1.20;;
55170;SDS011;41060;47.510;8.680;2023-04-08T00:39:56;1.23;;;0.70;;
55170;SDS011;41060;47.510;8.680;2023-04-08T00:42:23;2.47;;;1.30;;
55170;SDS011;41060;47.510;8.680;2023-04-08T00:44:50;1.85;;;1.23;;
55170;SDS011;41060;47.510;8.680;2023-04-08T00:47:18;1.80;;;1.08;;
55170;SDS011;41060;47.510;8.680;2023-04-08T00:49:45;1.92;;;0.90;;
55170;SDS011;41060;47.510;8.680;2023-04-08T00:52:12;2.38;;;1.15;;
55170;SDS011;41060;47.510;8.680;2023-04-08T00:54:40;1.92;;;1.27;;
55170;SDS011;41060;47.510;8.680;2023-04-08T00:57:07;0.85;;;0.75;;
55170;SDS011;41060;47.510;8.680;2023-04-08T00:59:34;1.20;;;0.93;;
55170;SDS011;41060;47.510;8.680;2023-04-08T01:02:03;2.05;;;1.25;;
55170;SDS011;41060;47.510;8.680;2023-04-08T01:04:43;1.98;;;1.10;;
55170;SDS011;41060;47.510;8.680;2023-04-08T01:07:16;1.27;;;0.90;;
55170;SDS011;41060;47.510;8.680;2023-04-08T01:09:47;1.17;;;0.88;;
55170;SDS011;41060;47.510;8.680;2023-04-08T01:12:19;1.40;;;0.80;;
55170;SDS011;41060;47.510;8.680;2023-04-08T01:14:58;1.30;;;0.70;;
55170;SDS011;41060;47.510;8.680;2023-04-08T01:17:28;0.60;;;0.38;;
55170;SDS011;41060;47.510;8.680;2023-04-08T01:19:57;1.25;;;1.05;;
55170;SDS011;41060;47.510;8.680;2023-04-08T01:22:30;3.92;;;1.13;;
55170;SDS011;41060;47.510;8.680;2023-04-08T01:25:07;2.35;;;1.05;;
55170;SDS011;41060;47.510;8.680;2023-04-08T01:27:42;3.92;;;1.95;;
55170;SDS011;41060;47.510;8.680;2023-04-08T01:30:09;3.35;;;2.08;;
55170;SDS011;41060;47.510;8.680;2023-04-08T01:32:37;9.35;;;3.60;;
55170;SDS011;41060;47.510;8.680;2023-04-08T01:35:07;10.55;;;3.22;;
55170;SDS011;41060;47.510;8.680;2023-04-08T01:37:35;4.03;;;2.00;;
55170;SDS011;41060;47.510;8.680;2023-04-08T01:40:02;5.10;;;2.22;;
55170;SDS011;41060;47.510;8.680;2023-04-08T01:42:33;4.90;;;2.75;;
55170;SDS011;41060;47.510;8.680;2023-04-08T01:45:03;3.05;;;1.85;;
55170;SDS011;41060;47.510;8.680;2023-04-08T01:47:31;4.22;;;1.73;;
55170;SDS011;41060;47.510;8.680;2023-04-08T01:49:59;1.60;;;1.25;;
55170;SDS011;41060;47.510;8.680;2023-04-08T01:52:27;2.10;;;1.40;;
55170;SDS011;41060;47.510;8.680;2023-04-08T01:54:54;1.30;;;1.00;;
55170;SDS011;41060;47.510;8.680;2023-04-08T01:57:22;2.38;;;0.82;;
55170;SDS011;41060;47.510;8.680;2023-04-08T01:59:51;1.77;;;1.05;;
55170;SDS011;41060;47.510;8.680;2023-04-08T02:02:24;2.05;;;1.00;;
55170;SDS011;41060;47.510;8.680;2023-04-08T02:04:52;2.33;;;1.17;;
55170;SDS011;41060;47.510;8.680;2023-04-08T02:07:19;2.88;;;1.15;;
55170;SDS011;41060;47.510;8.680;2023-04-08T02:09:46;1.75;;;1.08;;
55170;SDS011;41060;47.510;8.680;2023-04-08T02:12:13;1.88;;;0.90;;
55170;SDS011;41060;47.510;8.680;2023-04-08T02:14:39;1.60;;;0.95;;
55170;SDS011;41060;47.510;8.680;2023-04-08T02:17:07;3.05;;;0.90;;
55170;SDS011;41060;47.510;8.680;2023-04-08T02:19:39;2.15;;;1.02;;
55170;SDS011;41060;47.510;8.680;2023-04-08T02:22:16;2.40;;;1.17;;
55170;SDS011;41060;47.510;8.680;2023-04-08T02:24:48;1.23;;;0.80;;
55170;SDS011;41060;47.510;8.680;2023-04-08T02:27:20;2.28;;;1.35;;
55170;SDS011;41060;47.510;8.680;2023-04-08T02:29:49;1.42;;;1.08;;
55170;SDS011;41060;47.510;8.680;2023-04-08T02:32:20;1.67;;;1.13;;
55170;SDS011;41060;47.510;8.680;2023-04-08T02:34:51;3.22;;;1.60;;
55170;SDS011;41060;47.510;8.680;2023-04-08T02:37:19;3.40;;;1.58;;
55170;SDS011;41060;47.510;8.680;2023-04-08T02:39:46;3.30;;;1.65;;
55170;SDS011;41060;47.510;8.680;2023-04-08T02:42:13;2.47;;;1.27;;
55170;SDS011;41060;47.510;8.680;2023-04-08T02:44:40;1.73;;;1.17;;
55170;SDS011;41060;47.510;8.680;2023-04-08T02:47:07;2.28;;;1.40;;
55170;SDS011;41060;47.510;8.680;2023-04-08T02:49:33;1.83;;;1.02;;
55170;SDS011;41060;47.510;8.680;2023-04-08T02:52:01;1.58;;;1.17;;
55170;SDS011;41060;47.510;8.680;2023-04-08T02:54:28;1.73;;;1.27;;
55170;SDS011;41060;47.510;8.680;2023-04-08T02:56:55;2.13;;;1.33;;
55170;SDS011;41060;47.510;8.680;2023-04-08T02:59:22;4.05;;;1.90;;
55170;SDS011;41060;47.510;8.680;2023-04-08T03:01:50;1.75;;;1.42;;
55170;SDS011;41060;47.510;8.680;2023-04-08T03:04:16;2.92;;;1.52;;
55170;SDS011;41060;47.510;8.680;2023-04-08T03:06:42;1.45;;;0.95;;
55170;SDS011;41060;47.510;8.680;2023-04-08T03:09:11;2.08;;;1.05;;
55170;SDS011;41060;47.510;8.680;2023-04-08T03:11:38;4.00;;;1.10;;
55170;SDS011;41060;47.510;8.680;2023-04-08T03:14:08;2.58;;;1.27;;
55170;SDS011;41060;47.510;8.680;2023-04-08T03:16:35;2.55;;;1.17;;
55170;SDS011;41060;47.510;8.680;2023-04-08T03:19:01;1.92;;;1.08;;
55170;SDS011;41060;47.510;8.680;2023-04-08T03:21:28;1.60;;;0.95;;
55170;SDS011;41060;47.510;8.680;2023-04-08T03:23:58;2.70;;;1.13;;
55170;SDS011;41060;47.510;8.680;2023-04-08T03:26:25;1.85;;;1.20;;
55170;SDS011;41060;47.510;8.680;2023-04-08T03:28:53;1.67;;;1.08;;
55170;SDS011;41060;47.510;8.680;2023-04-08T03:31:20;1.65;;;1.10;;
55170;SDS011;41060;47.510;8.680;2023-04-08T03:33:47;1.92;;;1.52;;
55170;SDS011;41060;47.510;8.680;2023-04-08T03:36:13;2.35;;;1.33;;
55170;SDS011;41060;47.510;8.680;2023-04-08T03:38:40;2.42;;;1.38;;
55170;SDS011;41060;47.510;8.680;2023-04-08T03:41:07;2.33;;;1.50;;
55170;SDS011;41060;47.510;8.680;2023-04-08T03:43:34;3.38;;;1.50;;
55170;SDS011;41060;47.510;8.680;2023-04-08T03:46:01;2.35;;;1.40;;
55170;SDS011;41060;47.510;8.680;2023-04-08T03:48:28;2.03;;;1.15;;
55170;SDS011;41060;47.510;8.680;2023-04-08T03:50:57;2.30;;;1.45;;
55170;SDS011;41060;47.510;8.680;2023-04-08T03:53:24;2.70;;;1.17;;
55170;SDS011;41060;47.510;8.680;2023-04-08T03:55:53;1.52;;;1.00;;
55170;SDS011;41060;47.510;8.680;2023-04-08T03:58:20;1.52;;;1.00;;
55170;SDS011;41060;47.510;8.680;2023-04-08T04:00:48;2.13;;;1.42;;
55170;SDS011;41060;47.510;8.680;2023-04-08T04:03:15;1.20;;;0.77;;
55170;SDS011;41060;47.510;8.680;2023-04-08T04:05:44;1.75;;;1.30;;
55170;SDS011;41060;47.510;8.680;2023-04-08T04:08:11;1.90;;;1.25;;
55170;SDS011;41060;47.510;8.680;2023-04-08T04:10:38;1.38;;;0.98;;
55170;SDS011;41060;47.510;8.680;2023-04-08T04:13:04;2.45;;;1.40;;
55170;SDS011;41060;47.510;8.680;2023-04-08T04:15:31;1.35;;;0.90;;
55170;SDS011;41060;47.510;8.680;2023-04-08T04:17:59;2.35;;;1.35;;
55170;SDS011;41060;47.510;8.680;2023-04-08T04:20:26;2.03;;;1.02;;
55170;SDS011;41060;47.510;8.680;2023-04-08T04:22:54;1.90;;;1.00;;
55170;SDS011;41060;47.510;8.680;2023-04-08T04:25:21;1.73;;;1.30;;
55170;SDS011;41060;47.510;8.680;2023-04-08T04:27:48;1.85;;;1.20;;
55170;SDS011;41060;47.510;8.680;2023-04-08T04:30:15;2.80;;;1.70;;
55170;SDS011;41060;47.510;8.680;2023-04-08T04:32:43;2.28;;;1.50;;
55170;SDS011;41060;47.510;8.680;2023-04-08T04:35:11;2.72;;;1.42;;
55170;SDS011;41060;47.510;8.680;2023-04-08T04:37:38;3.28;;;1.42;;
55170;SDS011;41060;47.510;8.680;2023-04-08T04:40:05;2.17;;;1.70;;
55170;SDS011;41060;47.510;8.680;2023-04-08T04:42:33;3.88;;;1.50;;
55170;SDS011;41060;47.510;8.680;2023-04-08T04:45:00;2.47;;;1.45;;
55170;SDS011;41060;47.510;8.680;2023-04-08T04:47:26;3.20;;;1.77;;
55170;SDS011;41060;47.510;8.680;2023-04-08T04:49:53;2.13;;;1.40;;
55170;SDS011;41060;47.510;8.680;2023-04-08T04:52:21;3.15;;;1.98;;
55170;SDS011;41060;47.510;8.680;2023-04-08T04:54:48;1.88;;;1.40;;
55170;SDS011;41060;47.510;8.680;2023-04-08T04:57:15;5.78;;;2.25;;
55170;SDS011;41060;47.510;8.680;2023-04-08T04:59:42;2.33;;;1.63;;
55170;SDS011;41060;47.510;8.680;2023-04-08T05:02:08;2.97;;;1.77;;
55170;SDS011;41060;47.510;8.680;2023-04-08T05:04:35;3.20;;;2.47;;
55170;SDS011;41060;47.510;8.680;2023-04-08T05:07:02;2.47;;;1.98;;
55170;SDS011;41060;47.510;8.680;2023-04-08T05:09:29;2.63;;;2.38;;
55170;SDS011;41060;47.510;8.680;2023-04-08T05:11:56;2.85;;;1.50;;
55170;SDS011;41060;47.510;8.680;2023-04-08T05:14:23;3.50;;;2.03;;
55170;SDS011;41060;47.510;8.680;2023-04-08T05:16:50;2.65;;;1.38;;
55170;SDS011;41060;47.510;8.680;2023-04-08T05:19:16;3.15;;;1.90;;
55170;SDS011;41060;47.510;8.680;2023-04-08T05:21:43;2.72;;;1.83;;
55170;SDS011;41060;47.510;8.680;2023-04-08T05:24:11;2.53;;;1.77;;
55170;SDS011;41060;47.510;8.680;2023-04-08T05:26:39;7.00;;;2.78;;
55170;SDS011;41060;47.510;8.680;2023-04-08T05:29:06;4.45;;;2.25;;
55170;SDS011;41060;47.510;8.680;2023-04-08T05:31:33;4.30;;;2.42;;
55170;SDS011;41060;47.510;8.680;2023-04-08T05:33:59;10.85;;;5.07;;
55170;SDS011;41060;47.510;8.680;2023-04-08T05:36:27;10.43;;;4.00;;
55170;SDS011;41060;47.510;8.680;2023-04-08T05:38:56;6.38;;;3.55;;
55170;SDS011;41060;47.510;8.680;2023-04-08T05:41:22;7.07;;;2.80;;
55170;SDS011;41060;47.510;8.680;2023-04-08T05:43:51;5.97;;;3.03;;
55170;SDS011;41060;47.510;8.680;2023-04-08T05:46:17;4.30;;;3.35;;
55170;SDS011;41060;47.510;8.680;2023-04-08T05:48:44;9.05;;;3.92;;
55170;SDS011;41060;47.510;8.680;2023-04-08T05:51:14;10.02;;;4.28;;
55170;SDS011;41060;47.510;8.680;2023-04-08T05:53:42;3.50;;;1.95;;
55170;SDS011;41060;47.510;8.680;2023-04-08T05:56:11;3.05;;;1.75;;
55170;SDS011;41060;47.510;8.680;2023-04-08T05:58:37;2.70;;;1.77;;
55170;SDS011;41060;47.510;8.680;2023-04-08T06:01:05;3.67;;;2.08;;
55170;SDS011;41060;47.510;8.680;2023-04-08T06:03:32;6.05;;;2.30;;
55170;SDS011;41060;47.510;8.680;2023-04-08T06:05:59;7.85;;;3.55;;
55170;SDS011;41060;47.510;8.680;2023-04-08T06:08:25;5.43;;;3.10;;
55170;SDS011;41060;47.510;8.680;2023-04-08T06:10:53;3.47;;;2.42;;
55170;SDS011;41060;47.510;8.680;2023-04-08T06:13:19;7.97;;;4.22;;
55170;SDS011;41060;47.510;8.680;2023-04-08T06:15:46;5.63;;;3.03;;
55170;SDS011;41060;47.510;8.680;2023-04-08T06:18:16;4.55;;;3.08;;
55170;SDS011;41060;47.510;8.680;2023-04-08T06:20:42;4.35;;;3.15;;
55170;SDS011;41060;47.510;8.680;2023-04-08T06:23:10;5.28;;;3.08;;
55170;SDS011;41060;47.510;8.680;2023-04-08T06:25:37;6.35;;;2.95;;
55170;SDS011;41060;47.510;8.680;2023-04-08T06:28:03;4.85;;;2.70;;
55170;SDS011;41060;47.510;8.680;2023-04-08T06:30:30;5.93;;;3.40;;
55170;SDS011;41060;47.510;8.680;2023-04-08T06:32:57;6.78;;;4.10;;
55170;SDS011;41060;47.510;8.680;2023-04-08T06:35:25;4.72;;;3.22;;
55170;SDS011;41060;47.510;8.680;2023-04-08T06:37:51;6.43;;;4.00;;
55170;SDS011;41060;47.510;8.680;2023-04-08T06:40:18;5.00;;;3.22;;
55170;SDS011;41060;47.510;8.680;2023-04-08T06:42:45;7.35;;;4.03;;
55170;SDS011;41060;47.510;8.680;2023-04-08T06:45:12;9.05;;;3.95;;
55170;SDS011;41060;47.510;8.680;2023-04-08T06:47:40;7.60;;;3.53;;
55170;SDS011;41060;47.510;8.680;2023-04-08T06:50:06;6.25;;;3.75;;
55170;SDS011;41060;47.510;8.680;2023-04-08T06:52:35;4.72;;;2.90;;
55170;SDS011;41060;47.510;8.680;2023-04-08T06:55:02;7.63;;;3.85;;
55170;SDS011;41060;47.510;8.680;2023-04-08T06:57:28;6.38;;;3.13;;
55170;SDS011;41060;47.510;8.680;2023-04-08T06:59:55;6.47;;;3.55;;
55170;SDS011;41060;47.510;8.680;2023-04-08T07:02:24;7.68;;;3.88;;
55170;SDS011;41060;47.510;8.680;2023-04-08T07:04:51;5.43;;;4.03;;
55170;SDS011;41060;47.510;8.680;2023-04-08T07:07:17;5.45;;;3.20;;
55170;SDS011;41060;47.510;8.680;2023-04-08T07:09:46;5.40;;;3.30;;
55170;SDS011;41060;47.510;8.680;2023-04-08T07:12:12;3.28;;;2.50;;
55170;SDS011;41060;47.510;8.680;2023-04-08T07:14:38;4.95;;;2.63;;
55170;SDS011;41060;47.510;8.680;2023-04-08T07:17:06;5.80;;;4.63;;
55170;SDS011;41060;47.510;8.680;2023-04-08T07:19:32;8.50;;;3.53;;
55170;SDS011;41060;47.510;8.680;2023-04-08T07:21:59;4.63;;;2.95;;
55170;SDS011;41060;47.510;8.680;2023-04-08T07:24:26;5.78;;;2.97;;
55170;SDS011;41060;47.510;8.680;2023-04-08T07:26:54;5.65;;;2.95;;
55170;SDS011;41060;47.510;8.680;2023-04-08T07:29:20;5.95;;;3.78;;
55170;SDS011;41060;47.510;8.680;2023-04-08T07:31:48;5.82;;;3.50;;
55170;SDS011;41060;47.510;8.680;2023-04-08T07:34:14;5.15;;;2.72;;
55170;SDS011;41060;47.510;8.680;2023-04-08T07:36:41;7.90;;;3.28;;
55170;SDS011;41060;47.510;8.680;2023-04-08T07:39:10;5.15;;;2.13;;
55170;SDS011;41060;47.510;8.680;2023-04-08T07:41:37;4.93;;;2.70;;
55170;SDS011;41060;47.510;8.680;2023-04-08T07:44:05;5.85;;;3.65;;
55170;SDS011;41060;47.510;8.680;2023-04-08T07:46:35;6.68;;;3.22;;
55170;SDS011;41060;47.510;8.680;2023-04-08T07:49:02;4.90;;;2.88;;
55170;SDS011;41060;47.510;8.680;2023-04-08T07:51:28;3.58;;;2.78;;
55170;SDS011;41060;47.510;8.680;2023-04-08T07:53:55;9.43;;;3.42;;
55170;SDS011;41060;47.510;8.680;2023-04-08T07:56:22;8.77;;;3.17;;
55170;SDS011;41060;47.510;8.680;2023-04-08T07:58:48;7.95;;;2.90;;
55170;SDS011;41060;47.510;8.680;2023-04-08T08:01:17;8.13;;;3.28;;
55170;SDS011;41060;47.510;8.680;2023-04-08T08:03:45;3.75;;;2.58;;
55170;SDS011;41060;47.510;8.680;2023-04-08T08:06:12;6.32;;;3.33;;
55170;SDS011;41060;47.510;8.680;2023-04-08T08:08:39;6.18;;;3.28;;
55170;SDS011;41060;47.510;8.680;2023-04-08T08:11:06;4.20;;;3.08;;
55170;SDS011;41060;47.510;8.680;2023-04-08T08:13:32;3.80;;;2.20;;
55170;SDS011;41060;47.510;8.680;2023-04-08T08:16:00;5.90;;;3.35;;
55170;SDS011;41060;47.510;8.680;2023-04-08T08:18:28;5.57;;;3.20;;
55170;SDS011;41060;47.510;8.680;2023-04-08T08:20:54;6.82;;;3.85;;
55170;SDS011;41060;47.510;8.680;2023-04-08T08:23:21;4.93;;;2.78;;
55170;SDS011;41060;47.510;8.680;2023-04-08T08:25:48;5.20;;;2.60;;
55170;SDS011;41060;47.510;8.680;2023-04-08T08:28:15;4.15;;;2.95;;
55170;SDS011;41060;47.510;8.680;2023-04-08T08:30:42;3.63;;;2.67;;
55170;SDS011;41060;47.510;8.680;2023-04-08T08:33:09;3.70;;;2.65;;
55170;SDS011;41060;47.510;8.680;2023-04-08T08:35:36;6.88;;;4.43;;
55170;SDS011;41060;47.510;8.680;2023-04-08T08:38:04;10.95;;;4.82;;
55170;SDS011;41060;47.510;8.680;2023-04-08T08:40:31;5.68;;;3.58;;
55170;SDS011;41060;47.510;8.680;2023-04-08T08:42:58;3.88;;;3.15;;
55170;SDS011;41060;47.510;8.680;2023-04-08T08:45:26;8.00;;;3.80;;
55170;SDS011;41060;47.510;8.680;2023-04-08T08:47:52;4.70;;;3.10;;
55170;SDS011;41060;47.510;8.680;2023-04-08T08:50:19;6.10;;;3.53;;
55170;SDS011;41060;47.510;8.680;2023-04-08T08:52:48;7.82;;;3.50;;
55170;SDS011;41060;47.510;8.680;2023-04-08T08:55:16;6.95;;;3.00;;
55170;SDS011;41060;47.510;8.680;2023-04-08T08:57:44;5.28;;;3.10;;
55170;SDS011;41060;47.510;8.680;2023-04-08T09:00:11;6.80;;;3.55;;
55170;SDS011;41060;47.510;8.680;2023-04-08T09:02:40;4.43;;;3.17;;
55170;SDS011;41060;47.510;8.680;2023-04-08T09:05:07;6.13;;;3.25;;
55170;SDS011;41060;47.510;8.680;2023-04-08T09:07:35;6.15;;;3.15;;
55170;SDS011;41060;47.510;8.680;2023-04-08T09:10:08;5.65;;;3.05;;
55170;SDS011;41060;47.510;8.680;2023-04-08T09:12:39;4.32;;;2.78;;
55170;SDS011;41060;47.510;8.680;2023-04-08T09:15:18;5.40;;;3.13;;
55170;SDS011;41060;47.510;8.680;2023-04-08T09:17:46;5.72;;;3.22;;
55170;SDS011;41060;47.510;8.680;2023-04-08T09:20:12;6.05;;;2.95;;
55170;SDS011;41060;47.510;8.680;2023-04-08T09:22:54;6.68;;;3.60;;
55170;SDS011;41060;47.510;8.680;2023-04-08T09:25:24;5.90;;;3.65;;
55170;SDS011;41060;47.510;8.680;2023-04-08T09:27:51;4.25;;;2.90;;
55170;SDS011;41060;47.510;8.680;2023-04-08T09:30:18;5.68;;;3.22;;
55170;SDS011;41060;47.510;8.680;2023-04-08T09:32:47;6.47;;;2.97;;
55170;SDS011;41060;47.510;8.680;2023-04-08T09:35:17;4.78;;;2.65;;
55170;SDS011;41060;47.510;8.680;2023-04-08T09:37:44;6.53;;;3.13;;
55170;SDS011;41060;47.510;8.680;2023-04-08T09:40:12;5.45;;;2.88;;
55170;SDS011;41060;47.510;8.680;2023-04-08T09:42:44;6.95;;;3.42;;
55170;SDS011;41060;47.510;8.680;2023-04-08T09:45:15;6.63;;;3.35;;
55170;SDS011;41060;47.510;8.680;2023-04-08T09:47:55;4.90;;;2.72;;
55170;SDS011;41060;47.510;8.680;2023-04-08T09:50:29;5.15;;;3.10;;
55170;SDS011;41060;47.510;8.680;2023-04-08T09:52:59;7.28;;;2.97;;
55170;SDS011;41060;47.510;8.680;2023-04-08T09:55:31;5.70;;;3.47;;
55170;SDS011;41060;47.510;8.680;2023-04-08T09:58:02;4.97;;;2.92;;
55170;SDS011;41060;47.510;8.680;2023-04-08T10:00:36;4.38;;;3.08;;
55170;SDS011;41060;47.510;8.680;2023-04-08T10:03:12;7.05;;;3.95;;
55170;SDS011;41060;47.510;8.680;2023-04-08T10:05:55;5.78;;;3.10;;
55170;SDS011;41060;47.510;8.680;2023-04-08T10:08:26;7.30;;;3.00;;
55170;SDS011;41060;47.510;8.680;2023-04-08T10:10:53;3.53;;;2.20;;
55170;SDS011;41060;47.510;8.680;2023-04-08T10:13:22;3.65;;;2.40;;
55170;SDS011;41060;47.510;8.680;2023-04-08T10:15:49;5.85;;;3.40;;
55170;SDS011;41060;47.510;8.680;2023-04-08T10:18:29;5.38;;;2.90;;
55170;SDS011;41060;47.510;8.680;2023-04-08T10:20:57;3.65;;;2.60;;
55170;SDS011;41060;47.510;8.680;2023-04-08T10:26:35;3.90;;;2.50;;
55170;SDS011;41060;47.510;8.680;2023-04-08T10:32:08;21.00;;;12.02;;
55170;SDS011;41060;47.510;8.680;2023-04-08T10:34:53;47.40;;;21.30;;
55170;SDS011;41060;47.510;8.680;2023-04-08T10:37:20;13.10;;;5.30;;
55170;SDS011;41060;47.510;8.680;2023-04-08T10:39:48;7.07;;;3.08;;
55170;SDS011;41060;47.510;8.680;2023-04-08T10:42:16;5.38;;;3.38;;
55170;SDS011;41060;47.510;8.680;2023-04-08T10:44:43;7.45;;;3.45;;
55170;SDS011;41060;47.510;8.680;2023-04-08T10:47:12;6.72;;;3.20;;
55170;SDS011;41060;47.510;8.680;2023-04-08T10:49:39;5.45;;;2.85;;
55170;SDS011;41060;47.510;8.680;2023-04-08T10:52:06;5.97;;;3.40;;
55170;SDS011;41060;47.510;8.680;2023-04-08T10:54:34;9.48;;;3.80;;
55170;SDS011;41060;47.510;8.680;2023-04-08T10:57:01;7.20;;;3.05;;
55170;SDS011;41060;47.510;8.680;2023-04-08T10:59:29;4.55;;;2.90;;
55170;SDS011;41060;47.510;8.680;2023-04-08T11:01:56;4.20;;;2.53;;
55170;SDS011;41060;47.510;8.680;2023-04-08T11:04:25;6.03;;;2.83;;
55170;SDS011;41060;47.510;8.680;2023-04-08T11:06:52;5.93;;;3.03;;
55170;SDS011;41060;47.510;8.680;2023-04-08T11:09:18;4.65;;;2.78;;
55170;SDS011;41060;47.510;8.680;2023-04-08T11:11:47;5.88;;;3.75;;
55170;SDS011;41060;47.510;8.680;2023-04-08T11:14:14;6.60;;;3.70;;
55170;SDS011;41060;47.510;8.680;2023-04-08T11:16:45;5.05;;;2.85;;
55170;SDS011;41060;47.510;8.680;2023-04-08T11:19:12;8.25;;;3.75;;
55170;SDS011;41060;47.510;8.680;2023-04-08T11:21:41;5.50;;;2.67;;
55170;SDS011;41060;47.510;8.680;2023-04-08T11:24:09;6.78;;;3.55;;
55170;SDS011;41060;47.510;8.680;2023-04-08T11:26:41;3.28;;;2.40;;
55170;SDS011;41060;47.510;8.680;2023-04-08T11:29:08;6.82;;;3.42;;
55170;SDS011;41060;47.510;8.680;2023-04-08T11:31:38;4.70;;;2.88;;
55170;SDS011;41060;47.510;8.680;2023-04-08T11:34:09;4.80;;;3.45;;
55170;SDS011;41060;47.510;8.680;2023-04-08T11:36:35;3.85;;;2.47;;
55170;SDS011;41060;47.510;8.680;2023-04-08T11:39:06;3.55;;;2.35;;
55170;SDS011;41060;47.510;8.680;2023-04-08T11:41:35;4.43;;;2.50;;
55170;SDS011;41060;47.510;8.680;2023-04-08T11:44:03;3.90;;;2.50;;
55170;SDS011;41060;47.510;8.680;2023-04-08T11:46:30;4.70;;;2.67;;
55170;SDS011;41060;47.510;8.680;2023-04-08T11:49:02;2.92;;;1.88;;
55170;SDS011;41060;47.510;8.680;2023-04-08T11:51:30;2.58;;;2.03;;
55170;SDS011;41060;47.510;8.680;2023-04-08T11:53:59;4.00;;;2.08;;
55170;SDS011;41060;47.510;8.680;2023-04-08T11:56:27;3.65;;;1.63;;
55170;SDS011;41060;47.510;8.680;2023-04-08T11:59:00;4.57;;;1.75;;
55170;SDS011;41060;47.510;8.680;2023-04-08T12:01:27;2.38;;;1.63;;
55170;SDS011;41060;47.510;8.680;2023-04-08T12:03:57;3.53;;;2.22;;
55170;SDS011;41060;47.510;8.680;2023-04-08T12:06:25;2.75;;;1.85;;
55170;SDS011;41060;47.510;8.680;2023-04-08T12:08:53;2.92;;;1.50;;
55170;SDS011;41060;47.510;8.680;2023-04-08T12:11:20;3.53;;;1.55;;
55170;SDS011;41060;47.510;8.680;2023-04-08T12:13:49;3.75;;;1.77;;
55170;SDS011;41060;47.510;8.680;2023-04-08T12:16:17;3.55;;;1.58;;
55170;SDS011;41060;47.510;8.680;2023-04-08T12:18:44;1.90;;;1.33;;
55170;SDS011;41060;47.510;8.680;2023-04-08T12:21:11;3.78;;;1.88;;
55170;SDS011;41060;47.510;8.680;2023-04-08T12:23:38;3.00;;;1.40;;
55170;SDS011;41060;47.510;8.680;2023-04-08T12:26:05;3.83;;;2.00;;
55170;SDS011;41060;47.510;8.680;2023-04-08T12:28:32;5.80;;;1.77;;
55170;SDS011;41060;47.510;8.680;2023-04-08T12:31:01;3.03;;;1.77;;
55170;SDS011;41060;47.510;8.680;2023-04-08T12:33:28;5.47;;;2.15;;
55170;SDS011;41060;47.510;8.680;2023-04-08T12:35:55;4.53;;;2.30;;
55170;SDS011;41060;47.510;8.680;2023-04-08T12:38:25;2.67;;;1.63;;
55170;SDS011;41060;47.510;8.680;2023-04-08T12:40:52;5.85;;;2.90;;
55170;SDS011;41060;47.510;8.680;2023-04-08T12:43:18;3.72;;;2.30;;
55170;SDS011;41060;47.510;8.680;2023-04-08T12:45:48;3.65;;;2.45;;
55170;SDS011;41060;47.510;8.680;2023-04-08T12:48:16;3.10;;;2.45;;
55170;SDS011;41060;47.510;8.680;2023-04-08T12:50:43;2.97;;;2.03;;
55170;SDS011;41060;47.510;8.680;2023-04-08T12:53:10;4.00;;;2.65;;
55170;SDS011;41060;47.510;8.680;2023-04-08T12:55:36;3.13;;;1.63;;
55170;SDS011;41060;47.510;8.680;2023-04-08T12:58:03;4.82;;;2.50;;
55170;SDS011;41060;47.510;8.680;2023-04-08T13:00:31;4.20;;;2.20;;
55170;SDS011;41060;47.510;8.680;2023-04-08T13:02:57;5.00;;;2.85;;
55170;SDS011;41060;47.510;8.680;2023-04-08T13:05:26;4.55;;;2.55;;
55170;SDS011;41060;47.510;8.680;2023-04-08T13:07:53;4.40;;;2.38;;
55170;SDS011;41060;47.510;8.680;2023-04-08T13:10:19;2.92;;;1.63;;
55170;SDS011;41060;47.510;8.680;2023-04-08T13:12:46;4.18;;;2.80;;
55170;SDS011;41060;47.510;8.680;2023-04-08T13:15:13;3.45;;;1.98;;
55170;SDS011;41060;47.510;8.680;2023-04-08T13:17:40;4.80;;;2.65;;
55170;SDS011;41060;47.510;8.680;2023-04-08T13:20:08;4.88;;;2.08;;
55170;SDS011;41060;47.510;8.680;2023-04-08T13:22:37;3.53;;;2.15;;
55170;SDS011;41060;47.510;8.680;2023-04-08T13:25:05;4.05;;;2.00;;
55170;SDS011;41060;47.510;8.680;2023-04-08T13:27:32;5.18;;;2.10;;
55170;SDS011;41060;47.510;8.680;2023-04-08T13:29:59;3.08;;;1.67;;
55170;SDS011;41060;47.510;8.680;2023-04-08T13:32:26;3.25;;;2.03;;
55170;SDS011;41060;47.510;8.680;2023-04-08T13:34:52;4.47;;;1.55;;
55170;SDS011;41060;47.510;8.680;2023-04-08T13:37:19;2.90;;;1.63;;
55170;SDS011;41060;47.510;8.680;2023-04-08T13:39:47;1.67;;;1.05;;
55170;SDS011;41060;47.510;8.680;2023-04-08T13:42:14;1.75;;;1.20;;
55170;SDS011;41060;47.510;8.680;2023-04-08T13:44:41;2.13;;;1.00;;
55170;SDS011;41060;47.510;8.680;2023-04-08T13:47:07;2.15;;;1.10;;
55170;SDS011;41060;47.510;8.680;2023-04-08T13:49:34;2.28;;;1.10;;
55170;SDS011;41060;47.510;8.680;2023-04-08T13:52:01;2.53;;;1.00;;
55170;SDS011;41060;47.510;8.680;2023-04-08T13:54:27;1.35;;;0.98;;
55170;SDS011;41060;47.510;8.680;2023-04-08T13:56:56;1.33;;;0.80;;
55170;SDS011;41060;47.510;8.680;2023-04-08T13:59:24;14.13;;;6.97;;
55170;SDS011;41060;47.510;8.680;2023-04-08T14:01:50;17.95;;;9.38;;
55170;SDS011;41060;47.510;8.680;2023-04-08T14:04:18;38.50;;;18.23;;
55170;SDS011;41060;47.510;8.680;2023-04-08T14:06:45;26.98;;;11.00;;
55170;SDS011;41060;47.510;8.680;2023-04-08T14:09:11;3.80;;;2.05;;
55170;SDS011;41060;47.510;8.680;2023-04-08T14:11:38;1.67;;;1.15;;
55170;SDS011;41060;47.510;8.680;2023-04-08T14:14:06;2.63;;;1.35;;
55170;SDS011;41060;47.510;8.680;2023-04-08T14:16:34;2.17;;;1.30;;
55170;SDS011;41060;47.510;8.680;2023-04-08T14:19:00;2.95;;;1.38;;
55170;SDS011;41060;47.510;8.680;2023-04-08T14:21:27;3.60;;;1.27;;
55170;SDS011;41060;47.510;8.680;2023-04-08T14:23:55;3.83;;;2.03;;
55170;SDS011;41060;47.510;8.680;2023-04-08T14:26:22;2.42;;;1.50;;
55170;SDS011;41060;47.510;8.680;2023-04-08T14:28:49;3.50;;;1.70;;
55170;SDS011;41060;47.510;8.680;2023-04-08T14:31:17;3.20;;;1.58;;
55170;SDS011;41060;47.510;8.680;2023-04-08T14:33:43;2.13;;;1.40;;
55170;SDS011;41060;47.510;8.680;2023-04-08T14:36:11;3.05;;;1.63;;
55170;SDS011;41060;47.510;8.680;2023-04-08T14:38:38;3.38;;;1.73;;
55170;SDS011;41060;47.510;8.680;2023-04-08T14:41:04;3.17;;;1.67;;
55170;SDS011;41060;47.510;8.680;2023-04-08T14:43:32;2.95;;;1.60;;
55170;SDS011;41060;47.510;8.680;2023-04-08T14:45:58;5.10;;;2.35;;
55170;SDS011;41060;47.510;8.680;2023-04-08T14:48:26;3.83;;;1.80;;
55170;SDS011;41060;47.510;8.680;2023-04-08T14:50:55;3.55;;;1.90;;
55170;SDS011;41060;47.510;8.680;2023-04-08T14:53:22;3.25;;;1.90;;
55170;SDS011;41060;47.510;8.680;2023-04-08T14:55:48;3.92;;;2.42;;
55170;SDS011;41060;47.510;8.680;2023-04-08T14:58:15;3.10;;;1.70;;